createdAt,value
2022-10-23T00:00:24.396Z,99902.94
2022-10-23T00:00:55.972Z,99896.56
2022-10-23T00:01:31.024Z,99896.72
2022-10-23T00:02:02.665Z,99892.91
2022-10-23T00:02:34.359Z,99902.94
2022-10-23T00:03:05.927Z,99893.91
2022-10-23T00:03:37.538Z,99902.59
2022-10-23T00:04:11.586Z,99892.78
2022-10-23T00:04:43.126Z,99901.63
2022-10-23T00:05:14.642Z,99892.63
2022-10-23T00:05:46.186Z,99891.59
2022-10-23T00:06:17.781Z,99889.06
2022-10-23T00:06:49.319Z,99886.56
2022-10-23T00:07:20.923Z,99892.31
2022-10-23T00:07:52.771Z,99892.16
2022-10-23T00:08:24.288Z,99889.63
2022-10-23T00:08:55.841Z,99892.63
2022-10-23T00:09:27.424Z,99891.31
2022-10-23T00:09:58.960Z,99896.56
2022-10-23T00:10:31.100Z,99892.78
2022-10-23T00:11:05.961Z,99898.25
2022-10-23T00:11:37.466Z,99892.25
2022-10-23T00:12:08.930Z,99892.25
2022-10-23T00:12:40.662Z,99887.19
2022-10-23T00:13:12.587Z,99894.66
2022-10-23T00:13:44.149Z,99887.78
2022-10-23T00:14:16.151Z,99893.16
2022-10-23T00:14:47.644Z,99899.63
2022-10-23T00:15:19.743Z,99892.47
2022-10-23T00:16:23.739Z,99893.66
2022-10-23T00:16:55.325Z,99892.84
2022-10-23T00:17:26.821Z,99888.47
2022-10-23T00:17:58.307Z,99891.00
2022-10-23T00:18:29.801Z,99893.81
2022-10-23T00:19:01.404Z,99892.06
2022-10-23T00:19:32.885Z,99884.44
2022-10-23T00:20:05.087Z,99888.09
2022-10-23T00:20:36.582Z,99898.41
2022-10-23T00:21:08.565Z,99892.91
2022-10-23T00:21:40.083Z,99895.44
2022-10-23T00:22:11.581Z,99898.41
2022-10-23T00:22:42.993Z,99895.72
2022-10-23T00:23:14.479Z,99897.41
2022-10-23T00:23:46.045Z,99896.56
2022-10-23T00:24:17.567Z,99898.72
2022-10-23T00:24:49.090Z,99891.00
2022-10-23T00:25:20.619Z,99890.69
2022-10-23T00:25:52.272Z,99893.38
2022-10-23T00:26:23.797Z,99892.84
2022-10-23T00:26:55.384Z,99893.81
2022-10-23T00:27:26.958Z,99893.66
2022-10-23T00:27:58.445Z,99897.72
2022-10-23T00:28:29.944Z,99893.38
2022-10-23T00:29:01.427Z,99897.72
2022-10-23T00:29:32.974Z,99895.06
2022-10-23T00:30:04.654Z,99890.53
2022-10-23T00:30:36.176Z,99902.06
2022-10-23T00:31:07.670Z,99892.06
2022-10-23T00:31:39.137Z,99888.56
2022-10-23T00:32:10.827Z,99888.69
2022-10-23T00:32:42.374Z,99887.88
2022-10-23T00:33:13.876Z,99886.03
2022-10-23T00:33:45.367Z,99890.69
2022-10-23T00:34:16.935Z,99885.50
2022-10-23T00:34:48.466Z,99895.34
2022-10-23T00:35:19.944Z,99887.34
2022-10-23T00:35:51.444Z,99891.00
2022-10-23T00:36:22.972Z,99890.00
2022-10-23T00:36:54.586Z,99892.53
2022-10-23T00:37:26.156Z,99894.34
2022-10-23T00:37:57.706Z,99885.66
2022-10-23T00:38:29.282Z,99891.00
2022-10-23T00:39:00.766Z,99892.53
2022-10-23T00:39:32.273Z,99901.38
2022-10-23T00:40:04.545Z,99893.66
2022-10-23T00:40:38.436Z,99899.84
2022-10-23T00:41:10.202Z,99900.69
2022-10-23T00:41:41.744Z,99901.69
2022-10-23T00:42:14.251Z,99898.84
2022-10-23T00:42:45.852Z,99896.03
2022-10-23T00:43:20.855Z,99897.00
2022-10-23T00:43:56.601Z,99900.69
2022-10-23T00:44:28.120Z,99906.03
2022-10-23T00:45:10.353Z,99903.38
2022-10-23T00:45:41.888Z,99903.50
2022-10-23T00:46:13.400Z,99903.38
2022-10-23T00:46:44.979Z,99903.50
2022-10-23T00:47:16.590Z,99902.66
2022-10-23T00:47:48.177Z,99906.03
2022-10-23T00:48:19.763Z,99904.34
2022-10-23T00:48:51.446Z,99899.16
2022-10-23T00:49:22.955Z,99911.53
2022-10-23T00:49:54.460Z,99905.31
2022-10-23T00:50:26.730Z,99909.69
2022-10-23T00:50:58.292Z,99909.69
2022-10-23T00:51:31.688Z,99902.50
2022-10-23T00:52:03.647Z,99905.19
2022-10-23T00:52:35.398Z,99899.16
2022-10-23T00:53:06.951Z,99907.03
2022-10-23T00:53:38.485Z,99906.19
2022-10-23T00:54:23.496Z,99903.50
2022-10-23T00:54:55.749Z,99908.00
2022-10-23T00:55:27.423Z,99902.66
2022-10-23T00:55:58.931Z,99901.81
2022-10-23T00:56:30.852Z,99906.19
2022-10-23T00:57:03.158Z,99900.84
2022-10-23T00:57:34.729Z,99903.50
2022-10-23T00:58:06.293Z,99900.13
2022-10-23T00:58:37.797Z,99902.81
2022-10-23T00:59:09.297Z,99904.50
2022-10-23T00:59:40.904Z,99901.81
2022-10-23T01:00:15.777Z,99905.31
2022-10-23T01:00:47.215Z,99902.66
2022-10-23T01:01:19.800Z,99902.81
2022-10-23T01:01:51.565Z,99907.31
2022-10-23T01:02:23.291Z,99897.59
2022-10-23T01:02:54.939Z,99905.63
2022-10-23T01:03:27.338Z,99905.63
2022-10-23T01:03:58.863Z,99894.94
2022-10-23T01:04:30.329Z,99906.50
2022-10-23T01:05:01.875Z,99903.81
2022-10-23T01:05:41.568Z,99910.13
2022-10-23T01:06:18.585Z,99912.66
2022-10-23T01:07:08.466Z,99912.81
2022-10-23T01:07:43.630Z,99914.94
2022-10-23T01:08:17.449Z,99903.28
2022-10-23T01:08:48.921Z,99906.78
2022-10-23T01:09:20.521Z,99911.97
2022-10-23T01:09:54.939Z,99914.66
2022-10-23T01:10:29.153Z,99905.63
2022-10-23T01:11:20.918Z,99907.31
2022-10-23T01:11:53.209Z,99907.47
2022-10-23T01:12:35.282Z,99900.28
2022-10-23T01:13:16.876Z,99905.63
2022-10-23T01:13:55.080Z,99899.59
2022-10-23T01:14:27.961Z,99893.28
2022-10-23T01:15:07.230Z,99895.13
2022-10-23T01:15:48.588Z,99899.59
2022-10-23T01:16:41.206Z,99894.09
2022-10-23T01:17:14.600Z,99899.59
2022-10-23T01:17:48.392Z,99898.78
2022-10-23T01:18:22.956Z,99900.63
2022-10-23T01:18:57.817Z,99897.94
2022-10-23T01:19:48.034Z,99904.13
2022-10-23T01:20:22.140Z,99903.28
2022-10-23T01:21:00.266Z,99892.44
2022-10-23T01:21:35.115Z,99901.97
2022-10-23T01:22:06.567Z,99894.09
2022-10-23T01:22:47.155Z,99899.97
2022-10-23T01:23:37.349Z,99903.13
2022-10-23T01:24:08.794Z,99901.00
2022-10-23T01:24:51.530Z,99897.59
2022-10-23T01:25:29.030Z,99889.78
2022-10-23T01:26:03.187Z,99895.94
2022-10-23T01:26:40.717Z,99896.47
2022-10-23T01:27:14.604Z,99895.81
2022-10-23T01:27:46.828Z,99895.94
2022-10-23T01:28:21.526Z,99894.25
2022-10-23T01:28:59.009Z,99896.09
2022-10-23T01:29:37.014Z,99894.25
2022-10-23T01:30:12.009Z,99894.09
2022-10-23T01:30:43.953Z,99893.44
2022-10-23T01:31:16.553Z,99895.28
2022-10-23T01:31:49.921Z,99901.44
2022-10-23T01:32:24.386Z,99895.28
2022-10-23T01:33:01.134Z,99897.06
2022-10-23T01:33:37.965Z,99892.75
2022-10-23T01:34:10.785Z,99891.88
2022-10-23T01:34:49.284Z,99889.94
2022-10-23T01:35:22.090Z,99892.75
2022-10-23T01:35:59.634Z,99890.22
2022-10-23T01:36:31.112Z,99891.06
2022-10-23T01:37:02.755Z,99891.88
2022-10-23T01:37:42.286Z,99886.53
2022-10-23T01:38:17.761Z,99886.41
2022-10-23T01:38:53.452Z,99891.72
2022-10-23T01:39:25.817Z,99889.22
2022-10-23T01:39:58.105Z,99891.72
2022-10-23T01:40:31.092Z,99890.06
2022-10-23T01:41:03.526Z,99884.59
2022-10-23T01:41:36.628Z,99885.56
2022-10-23T01:42:12.089Z,99888.25
2022-10-23T01:42:45.234Z,99886.53
2022-10-23T01:43:18.261Z,99887.41
2022-10-23T01:43:55.565Z,99885.56
2022-10-23T01:44:28.367Z,99883.72
2022-10-23T01:45:04.049Z,99880.53
2022-10-23T01:45:42.509Z,99878.53
2022-10-23T01:46:15.207Z,99879.25
2022-10-23T01:46:46.977Z,99872.22
2022-10-23T01:47:18.923Z,99883.72
2022-10-23T01:47:50.766Z,99879.25
2022-10-23T01:48:23.272Z,99876.56
2022-10-23T01:48:55.020Z,99877.56
2022-10-23T01:49:26.542Z,99878.38
2022-10-23T01:49:58.188Z,99885.41
2022-10-23T01:50:29.715Z,99874.72
2022-10-23T01:51:01.897Z,99879.25
2022-10-23T01:51:33.454Z,99888.09
2022-10-23T01:52:06.459Z,99875.56
2022-10-23T01:52:37.934Z,99876.56
2022-10-23T01:53:09.453Z,99875.56
2022-10-23T01:53:41.998Z,99880.91
2022-10-23T01:54:13.722Z,99876.56
2022-10-23T01:54:45.211Z,99873.03
2022-10-23T01:55:16.681Z,99875.56
2022-10-23T01:55:48.617Z,99872.22
2022-10-23T01:56:22.585Z,99875.72
2022-10-23T01:56:54.024Z,99872.22
2022-10-23T01:57:25.597Z,99874.72
2022-10-23T01:57:57.241Z,99873.03
2022-10-23T01:58:28.812Z,99864.88
2022-10-23T01:59:01.836Z,99865.75
2022-10-23T01:59:37.243Z,99861.22
2022-10-23T02:00:09.865Z,99865.75
2022-10-23T02:00:41.374Z,99864.03
2022-10-23T02:01:13.105Z,99866.56
2022-10-23T02:01:45.933Z,99863.91
2022-10-23T02:02:17.852Z,99864.03
2022-10-23T02:02:49.691Z,99865.03
2022-10-23T02:03:21.404Z,99858.69
2022-10-23T02:03:53.215Z,99859.53
2022-10-23T02:04:32.057Z,99855.19
2022-10-23T02:05:06.322Z,99866.03
2022-10-23T02:05:37.866Z,99856.19
2022-10-23T02:06:09.446Z,99857.88
2022-10-23T02:06:41.266Z,99858.03
2022-10-23T02:07:12.759Z,99855.34
2022-10-23T02:07:44.570Z,99851.66
2022-10-23T02:08:16.350Z,99849.28
2022-10-23T02:08:47.860Z,99846.47
2022-10-23T02:09:19.362Z,99852.53
2022-10-23T02:09:50.866Z,99849.16
2022-10-23T02:10:22.470Z,99849.84
2022-10-23T02:10:53.921Z,99846.19
2022-10-23T02:11:25.380Z,99847.19
2022-10-23T02:12:01.875Z,99849.16
2022-10-23T02:12:36.177Z,99841.84
2022-10-23T02:13:19.174Z,99849.84
2022-10-23T02:13:50.682Z,99836.50
2022-10-23T02:14:28.095Z,99839.31
2022-10-23T02:15:19.998Z,99838.47
2022-10-23T02:15:58.211Z,99846.47
2022-10-23T02:16:32.259Z,99844.66
2022-10-23T02:17:14.462Z,99843.81
2022-10-23T02:17:45.946Z,99834.81
2022-10-23T02:18:23.373Z,99842.81
2022-10-23T02:18:59.266Z,99838.47
2022-10-23T02:19:30.715Z,99839.31
2022-10-23T02:20:08.041Z,99844.66
2022-10-23T02:21:23.265Z,99833.13
2022-10-23T02:22:03.527Z,99837.63
2022-10-23T02:22:36.794Z,99832.28
2022-10-23T02:23:19.110Z,99826.78
2022-10-23T02:23:52.535Z,99829.47
2022-10-23T02:24:29.651Z,99834.81
2022-10-23T02:25:06.785Z,99826.94
2022-10-23T02:25:56.801Z,99827.78
2022-10-23T02:26:30.820Z,99826.78
2022-10-23T02:27:02.916Z,99827.78
2022-10-23T02:27:38.676Z,99830.44
2022-10-23T02:28:10.726Z,99820.06
2022-10-23T02:28:57.121Z,99820.78
2022-10-23T02:29:33.249Z,99815.59
2022-10-23T02:30:05.448Z,99824.44
2022-10-23T02:30:37.371Z,99819.91
2022-10-23T02:31:09.726Z,99818.94
2022-10-23T02:31:41.282Z,99822.44
2022-10-23T02:32:12.806Z,99819.75
2022-10-23T02:32:48.152Z,99826.13
2022-10-23T02:33:19.717Z,99821.59
2022-10-23T02:33:51.224Z,99813.44
2022-10-23T02:34:22.716Z,99822.44
2022-10-23T02:34:54.267Z,99818.94
2022-10-23T02:35:25.761Z,99816.41
2022-10-23T02:35:57.312Z,99812.06
2022-10-23T02:36:28.801Z,99812.91
2022-10-23T02:37:00.387Z,99813.75
2022-10-23T02:37:31.941Z,99808.41
2022-10-23T02:38:03.645Z,99811.91
2022-10-23T02:38:36.202Z,99810.91
2022-10-23T02:39:07.668Z,99813.59
2022-10-23T02:39:39.300Z,99811.75
2022-10-23T02:40:11.191Z,99814.41
2022-10-23T02:40:42.850Z,99812.06
2022-10-23T02:41:14.401Z,99812.91
2022-10-23T02:41:56.399Z,99807.41
2022-10-23T02:42:34.394Z,99816.25
2022-10-23T02:43:08.339Z,99811.75
2022-10-23T02:43:41.504Z,99811.75
2022-10-23T02:44:12.951Z,99810.91
2022-10-23T02:44:47.040Z,99814.41
2022-10-23T02:45:24.643Z,99809.22
2022-10-23T02:45:58.943Z,99811.06
2022-10-23T02:46:36.443Z,99814.56
2022-10-23T02:47:20.792Z,99812.75
2022-10-23T02:47:54.129Z,99810.09
2022-10-23T02:49:03.999Z,99804.75
2022-10-23T02:49:35.512Z,99809.22
2022-10-23T02:50:10.116Z,99807.41
2022-10-23T02:50:41.564Z,99809.22
2022-10-23T02:51:21.339Z,99811.06
2022-10-23T02:52:11.640Z,99804.91
2022-10-23T02:52:48.888Z,99802.38
2022-10-23T02:53:22.464Z,99803.22
2022-10-23T02:54:20.168Z,99795.19
2022-10-23T02:55:04.254Z,99797.88
2022-10-23T02:55:35.676Z,99788.00
2022-10-23T02:56:19.170Z,99793.19
2022-10-23T02:56:52.858Z,99789.84
2022-10-23T02:57:27.468Z,99791.69
2022-10-23T02:58:09.412Z,99794.38
2022-10-23T02:58:48.548Z,99791.53
2022-10-23T02:59:21.323Z,99792.38
2022-10-23T02:59:57.128Z,99788.00
2022-10-23T03:00:28.665Z,99792.38
2022-10-23T03:01:04.673Z,99783.38
2022-10-23T03:01:38.820Z,99785.34
2022-10-23T03:02:25.511Z,99792.53
2022-10-23T03:02:58.306Z,99785.34
2022-10-23T03:03:30.484Z,99782.66
2022-10-23T03:04:02.859Z,99785.34
2022-10-23T03:04:34.412Z,99776.34
2022-10-23T03:05:06.804Z,99781.69
2022-10-23T03:05:38.619Z,99776.19
2022-10-23T03:06:10.063Z,99788.72
2022-10-23T03:06:41.594Z,99787.72
2022-10-23T03:07:13.253Z,99785.19
2022-10-23T03:07:44.914Z,99785.19
2022-10-23T03:08:16.645Z,99782.66
2022-10-23T03:08:54.556Z,99782.66
2022-10-23T03:09:26.310Z,99779.31
2022-10-23T03:09:57.867Z,99783.69
2022-10-23T03:10:29.395Z,99782.81
2022-10-23T03:11:00.981Z,99785.34
2022-10-23T03:11:32.475Z,99781.69
2022-10-23T03:12:04.022Z,99784.50
2022-10-23T03:12:35.567Z,99780.00
2022-10-23T03:13:07.166Z,99787.03
2022-10-23T03:13:38.738Z,99785.34
2022-10-23T03:14:11.415Z,99790.69
2022-10-23T03:14:43.043Z,99786.19
2022-10-23T03:15:14.670Z,99780.00
2022-10-23T03:15:46.220Z,99780.00
2022-10-23T03:16:17.764Z,99781.00
2022-10-23T03:16:49.292Z,99783.69
2022-10-23T03:17:20.824Z,99779.16
2022-10-23T03:17:52.392Z,99783.69
2022-10-23T03:18:23.937Z,99784.38
2022-10-23T03:18:55.535Z,99791.41
2022-10-23T03:19:27.112Z,99793.19
2022-10-23T03:19:58.658Z,99788.00
2022-10-23T03:20:30.164Z,99789.72
2022-10-23T03:21:01.766Z,99784.50
2022-10-23T03:21:33.282Z,99792.38
2022-10-23T03:22:04.773Z,99790.69
2022-10-23T03:22:36.300Z,99793.34
2022-10-23T03:23:08.506Z,99789.72
2022-10-23T03:23:39.974Z,99789.03
2022-10-23T03:24:11.592Z,99797.72
2022-10-23T03:24:43.175Z,99791.53
2022-10-23T03:25:14.937Z,99795.72
2022-10-23T03:25:46.461Z,99779.69
2022-10-23T03:26:17.988Z,99790.38
2022-10-23T03:26:49.684Z,99792.06
2022-10-23T03:27:21.293Z,99787.72
2022-10-23T03:27:52.842Z,99786.06
2022-10-23T03:28:24.290Z,99786.88
2022-10-23T03:28:55.832Z,99783.53
2022-10-23T03:29:27.486Z,99787.72
2022-10-23T03:29:59.025Z,99774.66
2022-10-23T03:30:30.541Z,99774.66
2022-10-23T03:31:02.356Z,99774.66
2022-10-23T03:31:34.108Z,99777.31
2022-10-23T03:32:05.594Z,99765.97
2022-10-23T03:32:37.085Z,99770.31
2022-10-23T03:33:08.646Z,99758.97
2022-10-23T03:33:40.311Z,99760.47
2022-10-23T03:34:11.872Z,99755.28
2022-10-23T03:34:43.616Z,99757.13
2022-10-23T03:35:15.176Z,99756.97
2022-10-23T03:36:24.418Z,99755.13
2022-10-23T03:36:55.936Z,99765.97
2022-10-23T03:37:27.454Z,99759.66
2022-10-23T03:37:59.011Z,99768.34
2022-10-23T03:38:30.544Z,99763.16
2022-10-23T03:39:02.080Z,99762.31
2022-10-23T03:39:33.611Z,99751.63
2022-10-23T03:40:05.735Z,99763.81
2022-10-23T03:40:37.215Z,99762.16
2022-10-23T03:41:08.725Z,99756.66
2022-10-23T03:41:40.226Z,99763.66
2022-10-23T03:42:11.811Z,99758.63
2022-10-23T03:42:43.354Z,99769.31
2022-10-23T03:43:14.943Z,99764.69
2022-10-23T03:43:46.444Z,99763.66
2022-10-23T03:44:18.113Z,99768.19
2022-10-23T03:44:49.664Z,99764.84
2022-10-23T03:45:21.219Z,99765.38
2022-10-23T03:45:52.675Z,99769.00
2022-10-23T03:46:24.217Z,99766.19
2022-10-23T03:46:55.761Z,99762.69
2022-10-23T03:47:27.310Z,99765.38
2022-10-23T03:47:58.768Z,99770.19
2022-10-23T03:48:30.242Z,99763.16
2022-10-23T03:49:01.795Z,99771.16
2022-10-23T03:49:33.300Z,99758.47
2022-10-23T03:50:05.005Z,99762.84
2022-10-23T03:50:36.553Z,99762.00
2022-10-23T03:51:08.063Z,99759.50
2022-10-23T03:51:39.552Z,99757.81
2022-10-23T03:52:11.057Z,99766.78
2022-10-23T03:52:42.787Z,99760.31
2022-10-23T03:53:14.609Z,99755.97
2022-10-23T03:53:46.082Z,99755.13
2022-10-23T03:54:19.056Z,99756.97
2022-10-23T03:54:50.477Z,99753.13
2022-10-23T03:55:21.968Z,99747.94
2022-10-23T03:55:53.493Z,99750.78
2022-10-23T03:56:24.983Z,99756.97
2022-10-23T03:56:57.722Z,99756.13
2022-10-23T03:57:29.486Z,99752.47
2022-10-23T03:58:00.972Z,99743.63
2022-10-23T03:58:32.471Z,99743.78
2022-10-23T03:59:03.965Z,99738.28
2022-10-23T03:59:35.517Z,99744.59
2022-10-23T04:00:07.305Z,99739.94
2022-10-23T04:00:38.884Z,99737.59
2022-10-23T04:01:10.551Z,99744.59
2022-10-23T04:01:42.176Z,99742.59
2022-10-23T04:02:13.840Z,99737.59
2022-10-23T04:02:45.686Z,99738.44
2022-10-23T04:03:17.491Z,99732.25
2022-10-23T04:03:48.943Z,99731.25
2022-10-23T04:04:20.486Z,99734.75
2022-10-23T04:04:51.970Z,99731.94
2022-10-23T04:05:23.485Z,99725.59
2022-10-23T04:05:54.996Z,99724.94
2022-10-23T04:06:26.541Z,99725.75
2022-10-23T04:06:58.146Z,99721.25
2022-10-23T04:07:29.842Z,99724.94
2022-10-23T04:08:01.341Z,99725.91
2022-10-23T04:08:32.884Z,99715.91
2022-10-23T04:09:04.725Z,99724.78
2022-10-23T04:09:36.305Z,99720.25
2022-10-23T04:10:08.032Z,99715.91
2022-10-23T04:10:39.507Z,99716.75
2022-10-23T04:11:11.132Z,99724.78
2022-10-23T04:11:42.756Z,99723.91
2022-10-23T04:12:14.287Z,99723.91
2022-10-23T04:12:45.860Z,99721.25
2022-10-23T04:13:17.552Z,99726.59
2022-10-23T04:13:49.079Z,99720.41
2022-10-23T04:14:20.620Z,99725.59
2022-10-23T04:14:52.082Z,99723.91
2022-10-23T04:15:23.525Z,99717.59
2022-10-23T04:15:55.009Z,99713.94
2022-10-23T04:16:26.631Z,99724.63
2022-10-23T04:16:58.133Z,99717.59
2022-10-23T04:17:29.690Z,99721.25
2022-10-23T04:18:01.215Z,99713.06
2022-10-23T04:18:32.785Z,99718.41
2022-10-23T04:19:04.268Z,99721.09
2022-10-23T04:19:35.772Z,99715.75
2022-10-23T04:20:07.420Z,99719.44
2022-10-23T04:20:38.915Z,99707.72
2022-10-23T04:21:10.476Z,99709.72
2022-10-23T04:21:42.023Z,99707.88
2022-10-23T04:22:13.498Z,99706.91
2022-10-23T04:22:45.643Z,99713.06
2022-10-23T04:23:17.431Z,99705.22
2022-10-23T04:23:48.922Z,99708.91
2022-10-23T04:24:20.406Z,99707.06
2022-10-23T04:24:51.940Z,99710.56
2022-10-23T04:25:23.429Z,99717.91
2022-10-23T04:25:57.765Z,99713.22
2022-10-23T04:26:29.362Z,99713.22
2022-10-23T04:27:00.878Z,99716.91
2022-10-23T04:27:32.409Z,99721.09
2022-10-23T04:28:03.951Z,99721.09
2022-10-23T04:28:35.411Z,99722.94
2022-10-23T04:29:06.868Z,99727.59
2022-10-23T04:29:38.384Z,99725.06
2022-10-23T04:30:10.224Z,99733.09
2022-10-23T04:30:41.765Z,99738.97
2022-10-23T04:31:13.223Z,99733.31
2022-10-23T04:31:44.780Z,99734.28
2022-10-23T04:32:16.249Z,99728.28
2022-10-23T04:32:50.195Z,99731.63
2022-10-23T04:33:21.727Z,99733.63
2022-10-23T04:33:53.293Z,99731.94
2022-10-23T04:34:24.797Z,99726.59
2022-10-23T04:34:56.285Z,99728.28
2022-10-23T04:35:27.876Z,99727.97
2022-10-23T04:35:59.449Z,99733.63
2022-10-23T04:36:30.940Z,99729.97
2022-10-23T04:37:02.533Z,99722.94
2022-10-23T04:37:34.108Z,99723.91
2022-10-23T04:38:05.642Z,99733.63
2022-10-23T04:38:37.188Z,99731.78
2022-10-23T04:39:08.909Z,99724.94
2022-10-23T04:39:40.400Z,99730.94
2022-10-23T04:40:12.032Z,99730.25
2022-10-23T04:40:43.532Z,99730.25
2022-10-23T04:41:15.076Z,99730.25
2022-10-23T04:41:46.652Z,99730.25
2022-10-23T04:42:18.276Z,99724.06
2022-10-23T04:42:49.839Z,99721.25
2022-10-23T04:43:21.311Z,99723.22
2022-10-23T04:43:52.818Z,99718.72
2022-10-23T04:44:24.354Z,99718.72
2022-10-23T04:44:55.883Z,99719.59
2022-10-23T04:45:27.405Z,99716.91
2022-10-23T04:45:58.851Z,99722.94
2022-10-23T04:46:30.436Z,99708.03
2022-10-23T04:47:01.917Z,99710.56
2022-10-23T04:47:33.562Z,99712.41
2022-10-23T04:48:05.088Z,99713.06
2022-10-23T04:48:36.645Z,99715.91
2022-10-23T04:49:08.176Z,99708.91
2022-10-23T04:49:39.700Z,99717.59
2022-10-23T04:50:11.238Z,99710.56
2022-10-23T04:50:42.823Z,99705.22
2022-10-23T04:51:14.317Z,99709.88
2022-10-23T04:51:45.837Z,99713.38
2022-10-23T04:52:17.334Z,99711.41
2022-10-23T04:52:48.921Z,99709.72
2022-10-23T04:53:20.445Z,99710.56
2022-10-23T04:53:51.979Z,99707.06
2022-10-23T04:54:23.416Z,99710.56
2022-10-23T04:54:54.825Z,99714.25
2022-10-23T04:55:26.288Z,99712.41
2022-10-23T04:55:58.054Z,99716.59
2022-10-23T04:56:29.530Z,99713.38
2022-10-23T04:57:00.992Z,99707.22
2022-10-23T04:57:32.457Z,99704.53
2022-10-23T04:58:03.859Z,99706.38
2022-10-23T04:58:35.340Z,99705.22
2022-10-23T04:59:06.867Z,99703.56
2022-10-23T04:59:38.311Z,99705.22
2022-10-23T05:00:10.121Z,99706.22
2022-10-23T05:00:41.954Z,99708.03
2022-10-23T05:01:13.689Z,99706.22
2022-10-23T05:01:45.362Z,99703.72
2022-10-23T05:02:16.877Z,99704.69
2022-10-23T05:02:48.365Z,99689.53
2022-10-23T05:03:19.891Z,99699.34
2022-10-23T05:03:51.432Z,99701.88
2022-10-23T05:04:22.906Z,99697.53
2022-10-23T05:04:54.461Z,99695.69
2022-10-23T05:05:26.123Z,99691.19
2022-10-23T05:05:57.732Z,99693.69
2022-10-23T05:06:29.344Z,99692.88
2022-10-23T05:07:00.851Z,99690.19
2022-10-23T05:07:32.394Z,99684.84
2022-10-23T05:08:03.947Z,99685.69
2022-10-23T05:08:35.453Z,99690.19
2022-10-23T05:09:06.966Z,99686.53
2022-10-23T05:09:38.565Z,99689.19
2022-10-23T05:10:10.126Z,99687.53
2022-10-23T05:10:41.654Z,99685.84
2022-10-23T05:11:13.516Z,99687.53
2022-10-23T05:11:45.084Z,99686.84
2022-10-23T05:12:16.598Z,99688.66
2022-10-23T05:12:48.107Z,99685.53
2022-10-23T05:13:19.707Z,99689.19
2022-10-23T05:13:51.221Z,99683.84
2022-10-23T05:14:23.028Z,99690.19
2022-10-23T05:14:54.604Z,99682.19
2022-10-23T05:15:26.128Z,99681.19
2022-10-23T05:15:58.276Z,99672.66
2022-10-23T05:16:29.823Z,99682.34
2022-10-23T05:17:02.706Z,99671.66
2022-10-23T05:17:35.000Z,99671.50
2022-10-23T05:18:13.476Z,99672.34
2022-10-23T05:18:45.812Z,99665.16
2022-10-23T05:19:24.499Z,99671.50
2022-10-23T05:19:56.325Z,99671.50
2022-10-23T05:20:28.715Z,99667.16
2022-10-23T05:21:05.076Z,99667.16
2022-10-23T05:21:36.595Z,99669.00
2022-10-23T05:22:08.128Z,99669.81
2022-10-23T05:22:39.700Z,99674.84
2022-10-23T05:23:11.281Z,99676.00
2022-10-23T05:23:42.759Z,99673.16
2022-10-23T05:24:14.253Z,99672.19
2022-10-23T05:24:48.295Z,99675.69
2022-10-23T05:25:22.111Z,99678.34
2022-10-23T05:25:53.614Z,99675.69
2022-10-23T05:26:25.045Z,99670.34
2022-10-23T05:26:56.750Z,99672.84
2022-10-23T05:27:28.313Z,99671.19
2022-10-23T05:27:59.919Z,99676.69
2022-10-23T05:28:31.455Z,99669.50
2022-10-23T05:29:03.286Z,99660.81
2022-10-23T05:29:34.760Z,99664.31
2022-10-23T05:30:06.544Z,99658.31
2022-10-23T05:30:38.070Z,99661.13
2022-10-23T05:31:09.587Z,99664.63
2022-10-23T05:31:41.158Z,99655.78
2022-10-23T05:32:13.005Z,99661.13
2022-10-23T05:32:44.954Z,99654.81
2022-10-23T05:33:16.872Z,99665.50
2022-10-23T05:33:48.380Z,99662.81
2022-10-23T05:34:20.483Z,99669.00
2022-10-23T05:34:52.026Z,99664.47
2022-10-23T05:35:23.546Z,99663.81
2022-10-23T05:35:55.160Z,99665.66
2022-10-23T05:36:26.850Z,99671.66
2022-10-23T05:36:58.374Z,99666.16
2022-10-23T05:37:29.959Z,99673.16
2022-10-23T05:38:01.350Z,99667.16
2022-10-23T05:38:33.004Z,99673.16
2022-10-23T05:39:04.813Z,99680.50
2022-10-23T05:39:36.246Z,99674.19
2022-10-23T05:40:07.971Z,99677.81
2022-10-23T05:41:15.872Z,99677.81
2022-10-23T05:41:47.410Z,99679.53
2022-10-23T05:42:18.903Z,99672.66
2022-10-23T05:42:50.522Z,99681.31
2022-10-23T05:43:21.926Z,99674.34
2022-10-23T05:43:53.469Z,99670.50
2022-10-23T05:44:24.947Z,99678.50
2022-10-23T05:44:56.442Z,99668.84
2022-10-23T05:45:27.948Z,99668.16
2022-10-23T05:45:59.434Z,99675.47
2022-10-23T05:46:30.907Z,99672.66
2022-10-23T05:47:02.537Z,99670.66
2022-10-23T05:47:33.977Z,99676.00
2022-10-23T05:48:11.246Z,99674.34
2022-10-23T05:48:51.237Z,99674.47
2022-10-23T05:49:25.931Z,99675.31
2022-10-23T05:49:57.645Z,99671.66
2022-10-23T05:50:29.123Z,99665.16
2022-10-23T05:51:06.964Z,99661.13
2022-10-23T05:51:39.021Z,99665.50
2022-10-23T05:52:11.233Z,99667.31
2022-10-23T05:52:45.748Z,99665.50
2022-10-23T05:53:17.469Z,99668.16
2022-10-23T05:53:49.372Z,99671.00
2022-10-23T05:54:20.894Z,99669.81
2022-10-23T05:54:52.389Z,99668.84
2022-10-23T05:55:23.922Z,99667.97
2022-10-23T05:55:55.436Z,99666.16
2022-10-23T05:56:26.972Z,99671.50
2022-10-23T05:56:58.549Z,99667.81
2022-10-23T05:57:32.361Z,99666.16
2022-10-23T05:58:04.093Z,99661.81
2022-10-23T05:58:35.547Z,99666.16
2022-10-23T05:59:07.209Z,99666.16
2022-10-23T05:59:38.693Z,99669.81
2022-10-23T06:00:10.559Z,99663.81
2022-10-23T06:00:42.078Z,99666.47
2022-10-23T06:01:13.949Z,99666.47
2022-10-23T06:01:45.632Z,99668.16
2022-10-23T06:02:17.274Z,99663.34
2022-10-23T06:02:48.835Z,99665.16
2022-10-23T06:03:20.406Z,99668.16
2022-10-23T06:03:51.944Z,99666.47
2022-10-23T06:04:23.462Z,99670.13
2022-10-23T06:04:54.992Z,99669.00
2022-10-23T06:05:26.507Z,99670.84
2022-10-23T06:05:57.984Z,99670.66
2022-10-23T06:06:29.623Z,99668.84
2022-10-23T06:07:01.385Z,99673.81
2022-10-23T06:07:35.144Z,99667.31
2022-10-23T06:08:07.445Z,99668.16
2022-10-23T06:08:38.938Z,99662.81
2022-10-23T06:09:10.401Z,99667.97
2022-10-23T06:09:41.925Z,99665.31
2022-10-23T06:10:13.534Z,99671.50
2022-10-23T06:10:44.990Z,99667.00
2022-10-23T06:11:16.424Z,99669.81
2022-10-23T06:11:47.845Z,99669.00
2022-10-23T06:12:20.166Z,99666.31
2022-10-23T06:12:51.599Z,99664.78
2022-10-23T06:13:23.118Z,99664.78
2022-10-23T06:13:54.782Z,99667.31
2022-10-23T06:14:26.298Z,99663.81
2022-10-23T06:14:57.807Z,99663.81
2022-10-23T06:15:29.376Z,99658.31
2022-10-23T06:16:09.679Z,99658.47
2022-10-23T06:16:41.433Z,99656.63
2022-10-23T06:17:13.050Z,99651.94
2022-10-23T06:17:44.895Z,99661.13
2022-10-23T06:18:16.893Z,99655.47
2022-10-23T06:18:48.511Z,99651.78
2022-10-23T06:19:20.152Z,99646.47
2022-10-23T06:19:51.628Z,99647.47
2022-10-23T06:20:26.568Z,99641.25
2022-10-23T06:21:00.495Z,99642.97
2022-10-23T06:21:32.012Z,99636.78
2022-10-23T06:22:04.461Z,99635.94
2022-10-23T06:22:36.059Z,99640.44
2022-10-23T06:23:07.600Z,99626.94
2022-10-23T06:23:39.204Z,99638.59
2022-10-23T06:24:10.722Z,99633.44
2022-10-23T06:24:42.327Z,99639.47
2022-10-23T06:25:13.823Z,99637.78
2022-10-23T06:25:50.357Z,99641.25
2022-10-23T06:26:21.916Z,99638.78
2022-10-23T06:26:53.487Z,99637.78
2022-10-23T06:27:24.973Z,99649.47
2022-10-23T06:27:56.530Z,99640.59
2022-10-23T06:28:28.128Z,99638.78